sensor_id;sensor_type;location;lat;lon;timestamp;P1;durP1;ratioP1;P2;durP2;ratioP2
28834;SDS011;15969;51.536;11.884;2023-07-20T00:01:24;6.63;;;3.50;;
28834;SDS011;15969;51.536;11.884;2023-07-20T00:03:49;6.10;;;3.57;;
28834;SDS011;15969;51.536;11.884;2023-07-20T00:06:23;5.17;;;3.30;;
28834;SDS011;15969;51.536;11.884;2023-07-20T00:08:51;3.90;;;3.13;;
28834;SDS011;15969;51.536;11.884;2023-07-20T00:11:16;3.63;;;2.93;;
28834;SDS011;15969;51.536;11.884;2023-07-20T00:13:42;7.23;;;4.00;;
28834;SDS011;15969;51.536;11.884;2023-07-20T00:16:08;5.20;;;3.50;;
28834;SDS011;15969;51.536;11.884;2023-07-20T00:18:34;6.83;;;3.33;;
28834;SDS011;15969;51.536;11.884;2023-07-20T00:20:59;4.53;;;3.90;;
28834;SDS011;15969;51.536;11.884;2023-07-20T00:23:26;4.70;;;3.47;;
28834;SDS011;15969;51.536;11.884;2023-07-20T00:25:52;4.93;;;3.30;;
28834;SDS011;15969;51.536;11.884;2023-07-20T00:28:18;4.30;;;3.40;;
28834;SDS011;15969;51.536;11.884;2023-07-20T00:30:44;5.33;;;3.20;;
28834;SDS011;15969;51.536;11.884;2023-07-20T00:33:10;5.63;;;3.20;;
28834;SDS011;15969;51.536;11.884;2023-07-20T00:35:37;5.83;;;3.30;;
28834;SDS011;15969;51.536;11.884;2023-07-20T00:38:04;4.13;;;3.13;;
28834;SDS011;15969;51.536;11.884;2023-07-20T00:40:40;5.13;;;3.33;;
28834;SDS011;15969;51.536;11.884;2023-07-20T00:43:06;4.43;;;3.37;;
28834;SDS011;15969;51.536;11.884;2023-07-20T00:45:33;9.30;;;3.57;;
28834;SDS011;15969;51.536;11.884;2023-07-20T00:48:00;7.20;;;3.40;;
28834;SDS011;15969;51.536;11.884;2023-07-20T00:50:27;5.83;;;3.90;;
28834;SDS011;15969;51.536;11.884;2023-07-20T00:52:57;8.07;;;4.13;;
28834;SDS011;15969;51.536;11.884;2023-07-20T00:55:24;8.03;;;3.70;;
28834;SDS011;15969;51.536;11.884;2023-07-20T00:57:53;9.30;;;4.10;;
28834;SDS011;15969;51.536;11.884;2023-07-20T01:00:19;6.83;;;3.60;;
28834;SDS011;15969;51.536;11.884;2023-07-20T01:02:45;5.83;;;3.50;;
28834;SDS011;15969;51.536;11.884;2023-07-20T01:05:12;5.93;;;3.70;;
28834;SDS011;15969;51.536;11.884;2023-07-20T01:07:39;4.70;;;3.50;;
28834;SDS011;15969;51.536;11.884;2023-07-20T01:10:34;5.13;;;3.50;;
28834;SDS011;15969;51.536;11.884;2023-07-20T01:13:10;4.87;;;3.67;;
28834;SDS011;15969;51.536;11.884;2023-07-20T01:15:39;5.47;;;3.37;;
28834;SDS011;15969;51.536;11.884;2023-07-20T01:18:04;5.27;;;3.20;;
28834;SDS011;15969;51.536;11.884;2023-07-20T01:20:31;5.47;;;3.47;;
28834;SDS011;15969;51.536;11.884;2023-07-20T01:25:58;6.13;;;3.90;;
28834;SDS011;15969;51.536;11.884;2023-07-20T01:28:47;5.43;;;3.63;;
28834;SDS011;15969;51.536;11.884;2023-07-20T01:31:28;8.30;;;3.87;;
28834;SDS011;15969;51.536;11.884;2023-07-20T01:33:57;5.70;;;4.20;;
28834;SDS011;15969;51.536;11.884;2023-07-20T01:36:26;6.23;;;3.73;;
28834;SDS011;15969;51.536;11.884;2023-07-20T01:38:55;5.27;;;3.60;;
28834;SDS011;15969;51.536;11.884;2023-07-20T01:41:21;6.73;;;4.03;;
28834;SDS011;15969;51.536;11.884;2023-07-20T01:43:48;5.30;;;3.57;;
28834;SDS011;15969;51.536;11.884;2023-07-20T01:46:13;5.43;;;3.47;;
28834;SDS011;15969;51.536;11.884;2023-07-20T01:48:39;5.03;;;3.77;;
28834;SDS011;15969;51.536;11.884;2023-07-20T01:51:05;4.37;;;3.97;;
28834;SDS011;15969;51.536;11.884;2023-07-20T01:53:31;7.83;;;3.90;;
28834;SDS011;15969;51.536;11.884;2023-07-20T01:55:56;6.70;;;3.97;;
28834;SDS011;15969;51.536;11.884;2023-07-20T01:58:22;4.50;;;3.83;;
28834;SDS011;15969;51.536;11.884;2023-07-20T02:00:48;5.30;;;3.83;;
28834;SDS011;15969;51.536;11.884;2023-07-20T02:03:14;5.97;;;4.23;;
28834;SDS011;15969;51.536;11.884;2023-07-20T02:05:43;6.37;;;4.00;;
28834;SDS011;15969;51.536;11.884;2023-07-20T02:08:10;4.00;;;3.60;;
28834;SDS011;15969;51.536;11.884;2023-07-20T02:10:36;9.03;;;4.00;;
28834;SDS011;15969;51.536;11.884;2023-07-20T02:13:01;7.90;;;4.67;;
28834;SDS011;15969;51.536;11.884;2023-07-20T02:15:27;4.37;;;3.97;;
28834;SDS011;15969;51.536;11.884;2023-07-20T02:17:53;8.40;;;3.90;;
28834;SDS011;15969;51.536;11.884;2023-07-20T02:20:19;5.50;;;3.40;;
28834;SDS011;15969;51.536;11.884;2023-07-20T02:22:45;8.63;;;3.97;;
28834;SDS011;15969;51.536;11.884;2023-07-20T02:25:11;8.47;;;3.97;;
28834;SDS011;15969;51.536;11.884;2023-07-20T02:27:37;5.57;;;3.80;;
28834;SDS011;15969;51.536;11.884;2023-07-20T02:30:04;5.77;;;3.80;;
28834;SDS011;15969;51.536;11.884;2023-07-20T02:32:30;6.73;;;3.83;;
28834;SDS011;15969;51.536;11.884;2023-07-20T02:34:56;4.90;;;4.20;;
28834;SDS011;15969;51.536;11.884;2023-07-20T02:37:23;7.60;;;4.43;;
28834;SDS011;15969;51.536;11.884;2023-07-20T02:39:49;10.20;;;4.27;;
28834;SDS011;15969;51.536;11.884;2023-07-20T02:42:15;8.00;;;3.97;;
28834;SDS011;15969;51.536;11.884;2023-07-20T02:44:41;7.57;;;4.23;;
28834;SDS011;15969;51.536;11.884;2023-07-20T02:47:06;6.97;;;4.47;;
28834;SDS011;15969;51.536;11.884;2023-07-20T02:49:32;9.77;;;4.10;;
28834;SDS011;15969;51.536;11.884;2023-07-20T02:51:58;6.70;;;4.27;;
28834;SDS011;15969;51.536;11.884;2023-07-20T02:54:24;6.20;;;4.37;;
28834;SDS011;15969;51.536;11.884;2023-07-20T02:56:49;12.03;;;4.80;;
28834;SDS011;15969;51.536;11.884;2023-07-20T02:59:15;8.77;;;4.50;;
28834;SDS011;15969;51.536;11.884;2023-07-20T03:01:41;11.07;;;4.20;;
28834;SDS011;15969;51.536;11.884;2023-07-20T03:04:09;7.33;;;4.23;;
28834;SDS011;15969;51.536;11.884;2023-07-20T03:06:35;4.10;;;3.63;;
28834;SDS011;15969;51.536;11.884;2023-07-20T03:09:02;8.43;;;4.43;;
28834;SDS011;15969;51.536;11.884;2023-07-20T03:11:28;5.77;;;4.20;;
28834;SDS011;15969;51.536;11.884;2023-07-20T03:13:54;8.33;;;4.00;;
28834;SDS011;15969;51.536;11.884;2023-07-20T03:16:21;6.70;;;3.80;;
28834;SDS011;15969;51.536;11.884;2023-07-20T03:18:48;7.33;;;4.13;;
28834;SDS011;15969;51.536;11.884;2023-07-20T03:21:14;4.93;;;4.53;;
28834;SDS011;15969;51.536;11.884;2023-07-20T03:23:40;9.83;;;4.03;;
28834;SDS011;15969;51.536;11.884;2023-07-20T03:26:06;11.23;;;4.33;;
28834;SDS011;15969;51.536;11.884;2023-07-20T03:28:35;7.20;;;4.17;;
28834;SDS011;15969;51.536;11.884;2023-07-20T03:31:04;9.20;;;4.30;;
28834;SDS011;15969;51.536;11.884;2023-07-20T03:33:30;7.10;;;4.10;;
28834;SDS011;15969;51.536;11.884;2023-07-20T03:35:57;10.57;;;5.00;;
28834;SDS011;15969;51.536;11.884;2023-07-20T03:38:24;10.97;;;4.50;;
28834;SDS011;15969;51.536;11.884;2023-07-20T03:40:56;8.60;;;4.57;;
28834;SDS011;15969;51.536;11.884;2023-07-20T03:43:24;6.30;;;4.00;;
28834;SDS011;15969;51.536;11.884;2023-07-20T03:45:51;6.70;;;4.50;;
28834;SDS011;15969;51.536;11.884;2023-07-20T03:48:18;6.97;;;4.70;;
28834;SDS011;15969;51.536;11.884;2023-07-20T03:50:47;6.43;;;4.80;;
28834;SDS011;15969;51.536;11.884;2023-07-20T03:53:14;8.60;;;4.60;;
28834;SDS011;15969;51.536;11.884;2023-07-20T03:55:41;11.30;;;4.93;;
28834;SDS011;15969;51.536;11.884;2023-07-20T03:58:10;32.37;;;5.90;;
28834;SDS011;15969;51.536;11.884;2023-07-20T04:00:36;7.20;;;4.50;;
28834;SDS011;15969;51.536;11.884;2023-07-20T04:03:02;10.67;;;4.83;;
28834;SDS011;15969;51.536;11.884;2023-07-20T04:05:27;8.77;;;4.50;;
28834;SDS011;15969;51.536;11.884;2023-07-20T04:07:53;11.27;;;5.30;;
28834;SDS011;15969;51.536;11.884;2023-07-20T04:10:19;8.90;;;4.57;;
28834;SDS011;15969;51.536;11.884;2023-07-20T04:12:45;9.27;;;5.07;;
28834;SDS011;15969;51.536;11.884;2023-07-20T04:15:12;9.10;;;5.20;;
28834;SDS011;15969;51.536;11.884;2023-07-20T04:17:38;7.90;;;4.83;;
28834;SDS011;15969;51.536;11.884;2023-07-20T04:20:06;7.47;;;5.20;;
28834;SDS011;15969;51.536;11.884;2023-07-20T04:22:32;8.00;;;4.77;;
28834;SDS011;15969;51.536;11.884;2023-07-20T04:24:58;11.77;;;6.13;;
28834;SDS011;15969;51.536;11.884;2023-07-20T04:27:24;8.83;;;5.13;;
28834;SDS011;15969;51.536;11.884;2023-07-20T04:29:51;10.80;;;5.13;;
28834;SDS011;15969;51.536;11.884;2023-07-20T04:32:16;11.97;;;5.40;;
28834;SDS011;15969;51.536;11.884;2023-07-20T04:34:42;11.90;;;5.40;;
28834;SDS011;15969;51.536;11.884;2023-07-20T04:37:08;9.03;;;5.70;;
28834;SDS011;15969;51.536;11.884;2023-07-20T04:39:33;12.97;;;5.83;;
28834;SDS011;15969;51.536;11.884;2023-07-20T04:41:59;8.87;;;4.97;;
28834;SDS011;15969;51.536;11.884;2023-07-20T04:44:25;8.47;;;5.07;;
28834;SDS011;15969;51.536;11.884;2023-07-20T04:46:51;12.63;;;6.00;;
28834;SDS011;15969;51.536;11.884;2023-07-20T04:49:16;8.60;;;4.80;;
28834;SDS011;15969;51.536;11.884;2023-07-20T04:51:42;11.33;;;5.17;;
28834;SDS011;15969;51.536;11.884;2023-07-20T04:54:08;6.90;;;4.90;;
28834;SDS011;15969;51.536;11.884;2023-07-20T04:56:33;10.07;;;5.03;;
28834;SDS011;15969;51.536;11.884;2023-07-20T04:58:59;7.17;;;5.17;;
28834;SDS011;15969;51.536;11.884;2023-07-20T05:01:25;11.80;;;5.70;;
28834;SDS011;15969;51.536;11.884;2023-07-20T05:03:53;9.97;;;5.23;;
28834;SDS011;15969;51.536;11.884;2023-07-20T05:06:19;17.07;;;6.17;;
28834;SDS011;15969;51.536;11.884;2023-07-20T05:08:45;10.30;;;6.07;;
28834;SDS011;15969;51.536;11.884;2023-07-20T05:11:11;11.20;;;5.57;;
28834;SDS011;15969;51.536;11.884;2023-07-20T05:13:37;8.83;;;5.30;;
28834;SDS011;15969;51.536;11.884;2023-07-20T05:16:03;6.50;;;4.53;;
28834;SDS011;15969;51.536;11.884;2023-07-20T05:18:28;7.40;;;5.40;;
28834;SDS011;15969;51.536;11.884;2023-07-20T05:20:54;8.80;;;5.20;;
28834;SDS011;15969;51.536;11.884;2023-07-20T05:23:20;13.83;;;5.10;;
28834;SDS011;15969;51.536;11.884;2023-07-20T05:25:47;11.13;;;5.10;;
28834;SDS011;15969;51.536;11.884;2023-07-20T05:28:22;10.03;;;4.67;;
28834;SDS011;15969;51.536;11.884;2023-07-20T05:30:49;9.67;;;4.70;;
28834;SDS011;15969;51.536;11.884;2023-07-20T05:33:16;11.20;;;4.43;;
28834;SDS011;15969;51.536;11.884;2023-07-20T05:35:43;8.63;;;4.40;;
28834;SDS011;15969;51.536;11.884;2023-07-20T05:38:09;8.33;;;4.10;;
28834;SDS011;15969;51.536;11.884;2023-07-20T05:40:38;6.40;;;4.13;;
28834;SDS011;15969;51.536;11.884;2023-07-20T05:43:05;8.33;;;3.80;;
28834;SDS011;15969;51.536;11.884;2023-07-20T05:45:31;9.83;;;4.13;;
28834;SDS011;15969;51.536;11.884;2023-07-20T05:47:57;8.97;;;4.30;;
28834;SDS011;15969;51.536;11.884;2023-07-20T05:50:22;8.27;;;3.97;;
28834;SDS011;15969;51.536;11.884;2023-07-20T05:52:48;4.43;;;3.77;;
28834;SDS011;15969;51.536;11.884;2023-07-20T05:55:14;9.10;;;4.40;;
28834;SDS011;15969;51.536;11.884;2023-07-20T05:57:39;7.63;;;4.53;;
28834;SDS011;15969;51.536;11.884;2023-07-20T06:00:08;8.33;;;4.50;;
28834;SDS011;15969;51.536;11.884;2023-07-20T06:02:34;7.23;;;4.90;;
28834;SDS011;15969;51.536;11.884;2023-07-20T06:05:00;12.70;;;5.63;;
28834;SDS011;15969;51.536;11.884;2023-07-20T06:07:26;8.80;;;5.03;;
28834;SDS011;15969;51.536;11.884;2023-07-20T06:09:52;9.77;;;4.77;;
28834;SDS011;15969;51.536;11.884;2023-07-20T06:12:17;6.17;;;4.87;;
28834;SDS011;15969;51.536;11.884;2023-07-20T06:14:43;13.43;;;5.57;;
28834;SDS011;15969;51.536;11.884;2023-07-20T06:17:09;6.87;;;5.10;;
28834;SDS011;15969;51.536;11.884;2023-07-20T06:19:35;5.23;;;4.47;;
28834;SDS011;15969;51.536;11.884;2023-07-20T06:22:00;8.83;;;5.00;;
28834;SDS011;15969;51.536;11.884;2023-07-20T06:24:27;6.13;;;5.07;;
28834;SDS011;15969;51.536;11.884;2023-07-20T06:26:52;8.57;;;4.60;;
28834;SDS011;15969;51.536;11.884;2023-07-20T06:29:18;8.93;;;5.20;;
28834;SDS011;15969;51.536;11.884;2023-07-20T06:31:44;6.43;;;5.47;;
28834;SDS011;15969;51.536;11.884;2023-07-20T06:34:10;5.37;;;4.83;;
28834;SDS011;15969;51.536;11.884;2023-07-20T06:36:35;4.73;;;4.00;;
28834;SDS011;15969;51.536;11.884;2023-07-20T06:39:01;7.80;;;3.53;;
28834;SDS011;15969;51.536;11.884;2023-07-20T06:41:27;6.60;;;4.27;;
28834;SDS011;15969;51.536;11.884;2023-07-20T06:43:53;5.23;;;4.07;;
28834;SDS011;15969;51.536;11.884;2023-07-20T06:46:23;7.17;;;4.10;;
28834;SDS011;15969;51.536;11.884;2023-07-20T06:48:50;5.53;;;4.93;;
28834;SDS011;15969;51.536;11.884;2023-07-20T06:51:16;7.80;;;4.93;;
28834;SDS011;15969;51.536;11.884;2023-07-20T06:53:42;6.20;;;5.00;;
28834;SDS011;15969;51.536;11.884;2023-07-20T06:56:08;6.93;;;5.70;;
28834;SDS011;15969;51.536;11.884;2023-07-20T06:58:34;6.40;;;4.83;;
28834;SDS011;15969;51.536;11.884;2023-07-20T07:01:04;8.67;;;5.90;;
28834;SDS011;15969;51.536;11.884;2023-07-20T07:03:31;10.83;;;6.20;;
28834;SDS011;15969;51.536;11.884;2023-07-20T07:05:58;8.83;;;6.20;;
28834;SDS011;15969;51.536;11.884;2023-07-20T07:08:23;11.90;;;6.77;;
28834;SDS011;15969;51.536;11.884;2023-07-20T07:10:49;10.17;;;7.50;;
28834;SDS011;15969;51.536;11.884;2023-07-20T07:13:15;9.40;;;7.20;;
28834;SDS011;15969;51.536;11.884;2023-07-20T07:15:42;9.00;;;8.23;;
28834;SDS011;15969;51.536;11.884;2023-07-20T07:18:07;7.40;;;6.90;;
28834;SDS011;15969;51.536;11.884;2023-07-20T07:20:33;10.23;;;7.13;;
28834;SDS011;15969;51.536;11.884;2023-07-20T07:22:59;8.43;;;7.63;;
28834;SDS011;15969;51.536;11.884;2023-07-20T07:25:25;19.37;;;8.03;;
28834;SDS011;15969;51.536;11.884;2023-07-20T07:27:52;9.90;;;7.77;;
28834;SDS011;15969;51.536;11.884;2023-07-20T07:30:18;6.97;;;6.30;;
28834;SDS011;15969;51.536;11.884;2023-07-20T07:32:44;7.50;;;6.80;;
28834;SDS011;15969;51.536;11.884;2023-07-20T07:35:10;9.47;;;7.30;;
28834;SDS011;15969;51.536;11.884;2023-07-20T07:37:36;7.53;;;6.83;;
28834;SDS011;15969;51.536;11.884;2023-07-20T07:40:03;7.57;;;6.87;;
28834;SDS011;15969;51.536;11.884;2023-07-20T07:42:30;7.47;;;6.70;;
28834;SDS011;15969;51.536;11.884;2023-07-20T07:44:56;8.90;;;6.97;;
28834;SDS011;15969;51.536;11.884;2023-07-20T07:47:22;7.03;;;6.33;;
28834;SDS011;15969;51.536;11.884;2023-07-20T07:49:48;7.23;;;6.53;;
28834;SDS011;15969;51.536;11.884;2023-07-20T07:52:14;13.33;;;6.90;;
28834;SDS011;15969;51.536;11.884;2023-07-20T07:54:40;9.53;;;7.10;;
28834;SDS011;15969;51.536;11.884;2023-07-20T07:57:06;6.67;;;6.07;;
28834;SDS011;15969;51.536;11.884;2023-07-20T07:59:31;7.73;;;6.20;;
28834;SDS011;15969;51.536;11.884;2023-07-20T08:02:01;7.47;;;6.60;;
28834;SDS011;15969;51.536;11.884;2023-07-20T08:04:29;6.40;;;5.73;;
28834;SDS011;15969;51.536;11.884;2023-07-20T08:06:55;6.40;;;5.53;;
28834;SDS011;15969;51.536;11.884;2023-07-20T08:09:21;6.63;;;6.00;;
28834;SDS011;15969;51.536;11.884;2023-07-20T08:11:47;7.67;;;6.30;;
28834;SDS011;15969;51.536;11.884;2023-07-20T08:14:13;6.07;;;5.37;;
28834;SDS011;15969;51.536;11.884;2023-07-20T08:16:39;7.20;;;6.00;;
28834;SDS011;15969;51.536;11.884;2023-07-20T08:19:04;6.27;;;5.63;;
28834;SDS011;15969;51.536;11.884;2023-07-20T08:21:30;5.67;;;5.17;;
28834;SDS011;15969;51.536;11.884;2023-07-20T08:23:56;7.17;;;5.67;;
28834;SDS011;15969;51.536;11.884;2023-07-20T08:26:22;7.70;;;5.40;;
28834;SDS011;15969;51.536;11.884;2023-07-20T08:28:49;6.27;;;5.30;;
28834;SDS011;15969;51.536;11.884;2023-07-20T08:31:14;6.67;;;5.87;;
28834;SDS011;15969;51.536;11.884;2023-07-20T08:33:40;6.77;;;6.13;;
28834;SDS011;15969;51.536;11.884;2023-07-20T08:36:06;6.80;;;5.67;;
28834;SDS011;15969;51.536;11.884;2023-07-20T08:38:32;6.33;;;5.73;;
28834;SDS011;15969;51.536;11.884;2023-07-20T08:40:58;7.23;;;5.70;;
28834;SDS011;15969;51.536;11.884;2023-07-20T08:43:25;7.67;;;6.00;;
28834;SDS011;15969;51.536;11.884;2023-07-20T08:45:53;5.67;;;4.97;;
28834;SDS011;15969;51.536;11.884;2023-07-20T08:48:24;6.07;;;5.43;;
28834;SDS011;15969;51.536;11.884;2023-07-20T08:50:53;9.73;;;6.23;;
28834;SDS011;15969;51.536;11.884;2023-07-20T08:53:19;19.97;;;7.43;;
28834;SDS011;15969;51.536;11.884;2023-07-20T08:55:45;27.73;;;7.23;;
28834;SDS011;15969;51.536;11.884;2023-07-20T08:58:13;20.83;;;8.77;;
28834;SDS011;15969;51.536;11.884;2023-07-20T09:00:41;21.20;;;10.33;;
28834;SDS011;15969;51.536;11.884;2023-07-20T09:03:07;28.40;;;12.07;;
28834;SDS011;15969;51.536;11.884;2023-07-20T09:05:33;22.60;;;9.40;;
28834;SDS011;15969;51.536;11.884;2023-07-20T09:08:00;8.30;;;7.13;;
28834;SDS011;15969;51.536;11.884;2023-07-20T09:10:28;10.40;;;7.97;;
28834;SDS011;15969;51.536;11.884;2023-07-20T09:12:54;9.03;;;8.13;;
28834;SDS011;15969;51.536;11.884;2023-07-20T09:15:21;7.87;;;7.03;;
28834;SDS011;15969;51.536;11.884;2023-07-20T09:17:51;10.93;;;8.03;;
28834;SDS011;15969;51.536;11.884;2023-07-20T09:20:19;28.67;;;10.50;;
28834;SDS011;15969;51.536;11.884;2023-07-20T09:22:45;7.97;;;5.70;;
28834;SDS011;15969;51.536;11.884;2023-07-20T09:25:12;6.00;;;4.10;;
28834;SDS011;15969;51.536;11.884;2023-07-20T09:27:40;5.47;;;4.97;;
28834;SDS011;15969;51.536;11.884;2023-07-20T09:30:11;7.63;;;4.83;;
28834;SDS011;15969;51.536;11.884;2023-07-20T09:32:40;9.23;;;6.40;;
28834;SDS011;15969;51.536;11.884;2023-07-20T09:35:18;7.27;;;6.60;;
28834;SDS011;15969;51.536;11.884;2023-07-20T09:37:58;8.53;;;6.70;;
28834;SDS011;15969;51.536;11.884;2023-07-20T09:40:25;9.50;;;7.53;;
28834;SDS011;15969;51.536;11.884;2023-07-20T09:42:52;10.27;;;9.20;;
28834;SDS011;15969;51.536;11.884;2023-07-20T09:48:23;9.30;;;8.40;;
28834;SDS011;15969;51.536;11.884;2023-07-20T09:50:52;9.93;;;8.90;;
28834;SDS011;15969;51.536;11.884;2023-07-20T09:53:19;9.77;;;8.97;;
28834;SDS011;15969;51.536;11.884;2023-07-20T09:55:45;9.60;;;8.63;;
28834;SDS011;15969;51.536;11.884;2023-07-20T09:58:12;9.57;;;8.77;;
28834;SDS011;15969;51.536;11.884;2023-07-20T10:00:40;10.23;;;9.40;;
28834;SDS011;15969;51.536;11.884;2023-07-20T10:03:19;8.90;;;8.13;;
28834;SDS011;15969;51.536;11.884;2023-07-20T10:05:57;8.47;;;7.87;;
28834;SDS011;15969;51.536;11.884;2023-07-20T10:08:29;7.80;;;7.10;;
28834;SDS011;15969;51.536;11.884;2023-07-20T10:10:59;7.73;;;7.03;;
28834;SDS011;15969;51.536;11.884;2023-07-20T10:13:27;7.40;;;6.80;;
28834;SDS011;15969;51.536;11.884;2023-07-20T10:16:02;5.13;;;4.73;;
28834;SDS011;15969;51.536;11.884;2023-07-20T10:18:41;6.87;;;5.30;;
28834;SDS011;15969;51.536;11.884;2023-07-20T10:21:37;4.50;;;4.17;;
28834;SDS011;15969;51.536;11.884;2023-07-20T10:24:12;4.07;;;3.43;;
28834;SDS011;15969;51.536;11.884;2023-07-20T10:26:39;3.20;;;3.00;;
28834;SDS011;15969;51.536;11.884;2023-07-20T10:29:05;2.80;;;2.60;;
28834;SDS011;15969;51.536;11.884;2023-07-20T10:31:31;3.20;;;3.00;;
28834;SDS011;15969;51.536;11.884;2023-07-20T10:33:58;4.70;;;2.80;;
28834;SDS011;15969;51.536;11.884;2023-07-20T10:36:25;3.43;;;3.13;;
28834;SDS011;15969;51.536;11.884;2023-07-20T10:38:53;4.53;;;3.57;;
28834;SDS011;15969;51.536;11.884;2023-07-20T10:43:49;4.00;;;2.83;;
28834;SDS011;15969;51.536;11.884;2023-07-20T10:46:33;3.10;;;2.63;;
28834;SDS011;15969;51.536;11.884;2023-07-20T10:49:05;2.57;;;2.37;;
28834;SDS011;15969;51.536;11.884;2023-07-20T10:56:41;1.27;;;1.13;;
28834;SDS011;15969;51.536;11.884;2023-07-20T10:59:54;1.17;;;1.07;;
28834;SDS011;15969;51.536;11.884;2023-07-20T11:01:55;1.60;;;1.10;;
28834;SDS011;15969;51.536;11.884;2023-07-20T11:04:40;1.17;;;0.90;;
28834;SDS011;15969;51.536;11.884;2023-07-20T11:07:08;0.90;;;0.87;;
28834;SDS011;15969;51.536;11.884;2023-07-20T11:09:35;1.30;;;0.87;;
28834;SDS011;15969;51.536;11.884;2023-07-20T11:12:11;0.90;;;0.80;;
28834;SDS011;15969;51.536;11.884;2023-07-20T11:15:00;2.27;;;1.10;;
28834;SDS011;15969;51.536;11.884;2023-07-20T11:17:31;0.90;;;0.90;;
28834;SDS011;15969;51.536;11.884;2023-07-20T11:20:00;1.30;;;0.90;;
28834;SDS011;15969;51.536;11.884;2023-07-20T11:22:28;1.20;;;1.10;;
28834;SDS011;15969;51.536;11.884;2023-07-20T11:24:56;3.83;;;1.00;;
28834;SDS011;15969;51.536;11.884;2023-07-20T11:27:23;2.60;;;1.03;;
28834;SDS011;15969;51.536;11.884;2023-07-20T11:29:49;1.20;;;1.10;;
28834;SDS011;15969;51.536;11.884;2023-07-20T11:32:21;1.10;;;1.00;;
28834;SDS011;15969;51.536;11.884;2023-07-20T11:34:50;0.93;;;0.93;;
28834;SDS011;15969;51.536;11.884;2023-07-20T11:37:16;3.17;;;1.50;;
28834;SDS011;15969;51.536;11.884;2023-07-20T11:39:43;1.73;;;1.40;;
28834;SDS011;15969;51.536;11.884;2023-07-20T11:42:09;2.50;;;1.50;;
28834;SDS011;15969;51.536;11.884;2023-07-20T11:44:35;3.43;;;1.77;;
28834;SDS011;15969;51.536;11.884;2023-07-20T11:47:05;1.67;;;1.57;;
28834;SDS011;15969;51.536;11.884;2023-07-20T11:49:37;2.60;;;2.40;;
28834;SDS011;15969;51.536;11.884;2023-07-20T11:52:11;2.33;;;2.20;;
28834;SDS011;15969;51.536;11.884;2023-07-20T11:54:40;3.93;;;2.60;;
28834;SDS011;15969;51.536;11.884;2023-07-20T11:57:07;2.80;;;2.60;;
28834;SDS011;15969;51.536;11.884;2023-07-20T12:02:27;2.40;;;2.20;;
28834;SDS011;15969;51.536;11.884;2023-07-20T12:04:56;2.70;;;2.50;;
28834;SDS011;15969;51.536;11.884;2023-07-20T12:07:22;2.97;;;2.50;;
28834;SDS011;15969;51.536;11.884;2023-07-20T12:10:07;2.70;;;2.50;;
28834;SDS011;15969;51.536;11.884;2023-07-20T12:12:42;3.17;;;2.37;;
28834;SDS011;15969;51.536;11.884;2023-07-20T12:15:25;3.50;;;3.20;;
28834;SDS011;15969;51.536;11.884;2023-07-20T12:17:52;3.20;;;3.00;;
28834;SDS011;15969;51.536;11.884;2023-07-20T12:25:40;3.77;;;3.23;;
28834;SDS011;15969;51.536;11.884;2023-07-20T12:28:14;3.43;;;3.23;;
28834;SDS011;15969;51.536;11.884;2023-07-20T12:30:43;3.30;;;3.10;;
28834;SDS011;15969;51.536;11.884;2023-07-20T12:33:11;3.53;;;3.33;;
28834;SDS011;15969;51.536;11.884;2023-07-20T12:35:40;4.00;;;3.80;;
28834;SDS011;15969;51.536;11.884;2023-07-20T12:38:08;3.60;;;3.40;;
28834;SDS011;15969;51.536;11.884;2023-07-20T12:40:34;3.90;;;3.60;;
28834;SDS011;15969;51.536;11.884;2023-07-20T12:43:00;4.50;;;3.57;;
28834;SDS011;15969;51.536;11.884;2023-07-20T12:45:25;4.40;;;4.00;;
28834;SDS011;15969;51.536;11.884;2023-07-20T12:47:52;5.07;;;4.57;;
28834;SDS011;15969;51.536;11.884;2023-07-20T12:50:17;4.60;;;4.30;;
28834;SDS011;15969;51.536;11.884;2023-07-20T12:52:43;3.30;;;3.10;;
28834;SDS011;15969;51.536;11.884;2023-07-20T12:55:09;3.50;;;3.30;;
28834;SDS011;15969;51.536;11.884;2023-07-20T12:57:35;4.07;;;3.77;;
28834;SDS011;15969;51.536;11.884;2023-07-20T13:00:02;3.63;;;3.20;;
28834;SDS011;15969;51.536;11.884;2023-07-20T13:02:32;3.37;;;3.10;;
28834;SDS011;15969;51.536;11.884;2023-07-20T13:04:58;3.40;;;3.20;;
28834;SDS011;15969;51.536;11.884;2023-07-20T13:07:31;3.53;;;3.33;;
28834;SDS011;15969;51.536;11.884;2023-07-20T13:10:02;3.00;;;2.80;;
28834;SDS011;15969;51.536;11.884;2023-07-20T13:12:29;2.97;;;2.77;;
28834;SDS011;15969;51.536;11.884;2023-07-20T13:14:57;5.30;;;2.90;;
28834;SDS011;15969;51.536;11.884;2023-07-20T13:17:27;2.63;;;2.43;;
28834;SDS011;15969;51.536;11.884;2023-07-20T13:19:54;1.93;;;1.83;;
28834;SDS011;15969;51.536;11.884;2023-07-20T13:22:20;2.20;;;2.00;;
28834;SDS011;15969;51.536;11.884;2023-07-20T13:24:46;2.23;;;2.03;;
28834;SDS011;15969;51.536;11.884;2023-07-20T13:27:15;2.10;;;1.90;;
28834;SDS011;15969;51.536;11.884;2023-07-20T13:29:42;3.13;;;2.10;;
28834;SDS011;15969;51.536;11.884;2023-07-20T13:32:08;2.27;;;2.07;;
28834;SDS011;15969;51.536;11.884;2023-07-20T13:34:34;1.83;;;1.73;;
28834;SDS011;15969;51.536;11.884;2023-07-20T13:37:00;1.50;;;1.40;;
28834;SDS011;15969;51.536;11.884;2023-07-20T13:39:27;1.77;;;1.67;;
28834;SDS011;15969;51.536;11.884;2023-07-20T13:41:53;1.60;;;1.37;;
28834;SDS011;15969;51.536;11.884;2023-07-20T13:44:19;0.90;;;0.90;;
28834;SDS011;15969;51.536;11.884;2023-07-20T13:46:49;1.33;;;1.23;;
28834;SDS011;15969;51.536;11.884;2023-07-20T13:49:15;1.33;;;1.13;;
28834;SDS011;15969;51.536;11.884;2023-07-20T13:51:41;1.03;;;1.03;;
28834;SDS011;15969;51.536;11.884;2023-07-20T13:54:07;1.40;;;1.30;;
28834;SDS011;15969;51.536;11.884;2023-07-20T13:56:34;1.60;;;1.20;;
28834;SDS011;15969;51.536;11.884;2023-07-20T13:59:00;2.93;;;1.20;;
28834;SDS011;15969;51.536;11.884;2023-07-20T14:01:26;1.97;;;1.27;;
28834;SDS011;15969;51.536;11.884;2023-07-20T14:03:53;5.67;;;1.37;;
28834;SDS011;15969;51.536;11.884;2023-07-20T14:06:19;0.90;;;0.83;;
28834;SDS011;15969;51.536;11.884;2023-07-20T14:08:45;2.87;;;0.97;;
28834;SDS011;15969;51.536;11.884;2023-07-20T14:11:12;1.07;;;0.73;;
28834;SDS011;15969;51.536;11.884;2023-07-20T14:13:38;2.03;;;0.80;;
28834;SDS011;15969;51.536;11.884;2023-07-20T14:16:04;1.57;;;1.00;;
28834;SDS011;15969;51.536;11.884;2023-07-20T14:18:30;1.90;;;0.77;;
28834;SDS011;15969;51.536;11.884;2023-07-20T14:20:56;1.47;;;0.87;;
28834;SDS011;15969;51.536;11.884;2023-07-20T14:23:22;1.03;;;0.90;;
28834;SDS011;15969;51.536;11.884;2023-07-20T14:25:48;1.43;;;0.83;;
28834;SDS011;15969;51.536;11.884;2023-07-20T14:28:14;2.10;;;0.83;;
28834;SDS011;15969;51.536;11.884;2023-07-20T14:30:41;0.90;;;0.70;;
28834;SDS011;15969;51.536;11.884;2023-07-20T14:33:06;1.43;;;0.80;;
28834;SDS011;15969;51.536;11.884;2023-07-20T14:35:33;1.10;;;0.63;;
28834;SDS011;15969;51.536;11.884;2023-07-20T14:37:59;0.80;;;0.67;;
28834;SDS011;15969;51.536;11.884;2023-07-20T14:40:25;2.70;;;1.03;;
28834;SDS011;15969;51.536;11.884;2023-07-20T14:42:51;0.80;;;0.80;;
28834;SDS011;15969;51.536;11.884;2023-07-20T14:45:17;0.90;;;0.70;;
28834;SDS011;15969;51.536;11.884;2023-07-20T14:47:43;0.80;;;0.60;;
28834;SDS011;15969;51.536;11.884;2023-07-20T14:50:10;1.03;;;0.80;;
28834;SDS011;15969;51.536;11.884;2023-07-20T14:52:36;0.80;;;0.70;;
28834;SDS011;15969;51.536;11.884;2023-07-20T14:55:02;0.90;;;0.67;;
28834;SDS011;15969;51.536;11.884;2023-07-20T14:57:29;1.03;;;0.70;;